.
WxDataArchive / Data Records for 2007-06-15
2007-06-14 June 2007 2007-06-16

Data Records for Friday, 15 June 2007

Time	Temp	Chill	HIndex	Humid	Dewpt	 Wind 	HiWind	WindDir	Rain 	Barom 
-----	----	-----	------	-----	-----	------	------	-------	-----	----- 
00:00	67.6	67.6	67.6	58	52.3	0	1	90	0.00	29.951 
00:05	67.8	67.8	67.8	58	52.5	0	1	90	0.00	29.948 
00:10	67.8	67.8	67.8	57	52.0	0	1	90	0.00	29.948 
00:15	67.9	67.9	67.9	57	52.1	0	1	90	0.00	29.949 
00:20	67.8	67.8	67.8	57	52.0	0	2	90	0.00	29.949 
00:25	67.8	67.8	67.8	56	51.5	0	1	90	0.00	29.951 
00:30	67.8	67.8	67.8	55	51.0	0	1	90	0.00	29.951 
00:35	67.6	67.6	67.6	56	51.3	0	1	90	0.00	29.951 
00:40	67.6	67.6	67.6	55	50.8	0	1	90	0.00	29.951 
00:45	67.6	67.6	67.6	55	50.8	0	2	90	0.00	29.952 
00:50	67.8	67.8	67.8	55	51.0	1	2	90	0.00	29.952 
00:55	67.8	67.8	67.8	55	51.0	1	2	90	0.00	29.952 
01:00	67.8	67.8	67.8	57	52.0	1	4	90	0.00	29.952 
01:05	67.6	67.6	67.6	58	52.3	1	3	90	0.00	29.950 
01:10	67.4	67.4	67.4	59	52.6	1	3	90	0.00	29.951 
01:15	67.1	67.1	67.1	60	52.7	0	2	90	0.00	29.950 
01:20	66.8	66.8	66.8	61	52.9	0	1	90	0.00	29.950 
01:25	66.4	66.4	66.4	61	52.5	0	0	---	0.00	29.950 
01:30	65.8	65.8	65.8	62	52.4	0	0	---	0.00	29.949 
01:35	65.3	65.3	65.3	64	52.8	0	1	90	0.00	29.947 
01:40	65.0	65.0	65.0	65	52.9	0	1	90	0.00	29.948 
01:45	65.0	65.0	65.0	65	52.9	0	1	90	0.00	29.947 
01:50	64.8	64.8	64.8	66	53.2	0	0	---	0.00	29.947 
01:55	64.7	64.7	64.7	67	53.5	0	1	90	0.00	29.945 
02:00	64.5	64.5	64.5	67	53.3	0	1	90	0.00	29.942 
02:05	64.7	64.7	64.7	67	53.5	0	2	90	0.00	29.944 
02:10	64.7	64.7	64.7	67	53.5	0	1	90	0.00	29.944 
02:15	64.7	64.7	64.7	67	53.5	0	1	90	0.00	29.942 
02:20	64.7	64.7	64.7	68	53.9	0	1	90	0.00	29.940 
02:25	64.5	64.5	64.5	68	53.7	0	1	90	0.00	29.938 
02:30	64.2	64.2	64.2	69	53.8	0	0	---	0.00	29.940 
02:35	63.9	63.9	63.9	69	53.5	0	0	---	0.00	29.944 
02:40	63.4	63.4	63.4	71	53.8	0	0	---	0.00	29.948 
02:45	63.1	63.1	63.1	72	53.9	0	0	---	0.00	29.952 
02:50	62.9	62.9	62.9	73	54.1	0	0	---	0.00	29.953 
02:55	62.6	62.6	62.6	74	54.2	0	0	---	0.00	29.953 
03:00	62.4	62.4	62.4	75	54.4	0	0	---	0.00	29.954 
03:05	62.1	62.1	62.1	76	54.4	0	0	---	0.00	29.961 
03:10	62.0	62.0	62.0	76	54.3	0	0	---	0.00	29.962 
03:15	61.6	61.6	61.6	77	54.3	0	0	---	0.00	29.961 
03:20	61.5	61.5	61.5	77	54.2	0	0	---	0.00	29.961 
03:25	61.3	61.3	61.3	78	54.4	0	0	---	0.00	29.961 
03:30	61.0	61.0	61.0	79	54.4	0	0	---	0.00	29.961 
03:35	60.9	60.9	60.9	80	54.7	0	0	---	0.00	29.961 
03:40	60.7	60.7	60.7	80	54.5	0	0	---	0.00	29.961 
03:45	60.5	60.5	60.5	81	54.6	0	0	---	0.00	29.961 
03:50	60.4	60.4	60.4	81	54.5	0	0	---	0.00	29.963 
03:55	60.2	60.2	60.2	82	54.7	0	0	---	0.00	29.963 
04:00	60.2	60.2	60.2	83	55.0	0	0	---	0.00	29.963 
04:05	60.1	60.1	60.1	83	54.9	0	0	---	0.00	29.958 
04:10	59.9	59.9	59.9	84	55.0	0	0	---	0.00	29.959 
04:15	59.9	59.9	59.9	85	55.4	0	0	---	0.00	29.959 
04:20	59.9	59.9	59.9	85	55.4	0	0	---	0.00	29.960 
04:25	59.9	59.9	59.9	86	55.7	0	0	---	0.00	29.960 
04:30	59.9	59.9	59.9	86	55.7	0	0	---	0.00	29.961 
04:35	59.9	59.9	59.9	86	55.7	0	0	---	0.00	29.962 
04:40	59.9	59.9	59.9	87	56.0	0	0	---	0.00	29.965 
04:45	59.9	59.9	59.9	87	56.0	0	0	---	0.00	29.970 
04:50	59.9	59.9	59.9	87	56.0	0	0	---	0.00	29.972 
04:55	59.9	59.9	59.9	87	56.0	0	0	---	0.00	29.974 
05:00	59.9	59.9	59.9	86	55.7	0	0	---	0.00	29.975 
05:05	59.8	59.8	59.8	86	55.6	0	0	---	0.00	29.978 
05:10	59.6	59.6	59.6	87	55.7	0	0	---	0.00	29.979 
05:15	59.6	59.6	59.6	87	55.7	0	0	---	0.00	29.979 
05:20	59.5	59.5	59.5	88	55.9	0	0	---	0.00	29.981 
05:25	59.5	59.5	59.5	88	55.9	0	0	---	0.00	29.982 
05:30	59.5	59.5	59.5	88	55.9	0	0	---	0.00	29.979 
05:35	59.5	59.5	59.5	89	56.3	0	0	---	0.00	29.979 
05:40	59.5	59.5	59.5	89	56.3	0	0	---	0.00	29.984 
05:45	59.5	59.5	59.5	89	56.3	0	0	---	0.00	29.983 
05:50	59.6	59.6	59.6	89	56.4	0	0	---	0.00	29.981 
05:55	59.6	59.6	59.6	90	56.7	0	0	---	0.00	29.986 
06:00	59.6	59.6	59.6	90	56.7	0	0	---	0.00	29.986 
06:05	59.8	59.8	59.8	90	56.9	0	0	---	0.00	29.988 
06:10	59.9	59.9	59.9	90	57.0	0	0	---	0.00	29.988 
06:15	60.2	60.2	60.2	90	57.3	0	0	---	0.00	29.988 
06:20	60.7	60.7	60.7	90	57.7	0	0	---	0.00	29.988 
06:25	61.2	61.2	61.2	90	58.2	0	0	---	0.00	29.988 
06:30	61.6	61.6	61.6	90	58.6	0	0	---	0.00	29.989 
06:35	62.1	62.1	62.1	89	58.8	0	1	90	0.00	29.990 
06:40	62.7	62.7	62.7	87	58.8	0	1	90	0.00	29.988 
06:45	63.4	63.4	63.4	85	58.8	0	1	90	0.00	29.989 
06:50	64.2	64.2	64.2	83	58.9	0	2	90	0.00	29.988 
06:55	64.7	64.7	64.7	81	58.7	0	2	90	0.00	29.989 
07:00	65.0	65.0	65.0	81	59.0	0	1	90	0.00	29.989 
07:05	65.5	65.5	65.5	81	59.5	0	2	90	0.00	29.990 
07:10	66.1	66.1	66.1	79	59.4	0	1	90	0.00	29.993 
07:15	66.9	66.9	66.9	77	59.4	0	2	90	0.00	29.992 
07:20	67.9	67.9	67.9	75	59.7	1	2	90	0.00	29.995 
07:25	68.4	68.4	68.4	73	59.4	1	3	90	0.00	29.994 
07:30	69.1	69.1	69.1	73	60.1	1	3	90	0.00	29.990 
07:35	68.9	68.9	68.9	72	59.5	1	2	90	0.00	29.990 
07:40	68.8	68.8	68.8	74	60.2	0	1	90	0.00	29.992 
07:45	69.4	69.4	69.4	72	60.0	0	2	90	0.00	29.991 
07:50	70.1	70.1	70.1	73	61.0	1	2	90	0.00	29.993 
07:55	71.1	71.1	71.1	69	60.4	0	2	90	0.00	29.992 
08:00	71.8	71.8	71.8	67	60.2	0	3	90	0.00	29.990 
08:05	72.3	72.3	72.3	65	59.9	0	2	90	0.00	29.990 
08:10	72.5	72.5	72.5	65	60.0	0	1	90	0.00	29.989 
08:15	73.0	73.0	73.0	62	59.2	0	1	90	0.00	29.990 
08:20	73.5	73.5	73.5	62	59.7	0	2	90	0.00	29.990 
08:25	74.0	74.0	74.0	62	60.1	0	1	90	0.00	29.988 
08:30	74.6	74.6	74.6	61	60.2	0	1	90	0.00	29.987 
08:35	75.1	75.1	77.4	60	60.2	1	3	90	0.00	29.987 
08:40	75.4	75.4	77.6	60	60.5	0	2	90	0.00	29.988 
08:45	75.8	75.8	77.9	58	59.9	1	3	90	0.00	29.987 
08:50	76.0	76.0	78.0	62	62.0	0	1	90	0.00	29.986 
08:55	76.0	76.0	78.1	57	59.6	0	1	90	0.00	29.987 
09:00	76.5	76.5	78.4	57	60.1	1	4	90	0.00	29.985 
09:05	76.5	76.5	78.4	60	61.6	1	2	90	0.00	29.985 
09:10	76.8	76.8	78.6	57	60.4	1	3	90	0.00	29.984 
09:15	77.0	77.0	78.8	59	61.6	1	3	90	0.00	29.985 
09:20	77.0	77.0	78.7	55	59.6	2	4	90	0.00	29.984 
09:25	76.8	76.8	78.6	55	59.4	1	4	90	0.00	29.983 
09:30	77.0	77.0	78.7	55	59.6	1	3	90	0.00	29.982 
09:35	77.4	77.4	79.0	56	60.5	1	3	90	0.00	29.981 
09:40	77.7	77.7	79.1	51	58.1	1	3	90	0.00	29.981 
09:45	77.9	77.9	79.3	54	59.9	1	3	90	0.00	29.980 
09:50	78.1	78.1	79.5	53	59.6	0	2	90	0.00	29.980 
09:55	78.5	78.5	79.8	53	59.9	0	2	90	0.00	29.980 
10:00	79.2	79.2	80.4	54	61.1	0	2	90	0.00	29.978 
10:05	79.4	79.4	80.3	50	59.1	1	4	90	0.00	29.981 
10:10	79.8	79.8	80.5	48	58.3	0	3	90	0.00	29.979 
10:15	80.5	80.5	80.9	47	58.4	0	2	90	0.00	29.979 
10:20	80.7	80.7	81.0	46	58.0	1	3	90	0.00	29.978 
10:25	80.9	80.9	81.5	49	59.9	0	2	90	0.00	29.979 
10:30	81.1	81.1	81.7	49	60.1	1	3	112	0.00	29.978 
10:35	81.1	81.1	81.1	44	57.1	1	3	112	0.00	29.977 
10:40	81.6	81.6	82.1	48	60.0	0	2	202	0.00	29.974 
10:45	81.4	81.4	81.5	45	58.0	2	5	90	0.00	29.974 
10:50	81.1	81.1	80.9	42	55.8	1	7	90	0.00	29.974 
10:55	81.2	81.2	81.1	43	56.5	2	7	112	0.00	29.973 
11:00	81.8	81.8	81.3	40	55.1	1	4	112	0.00	29.970 
11:05	82.0	82.0	81.5	40	55.3	2	4	112	0.00	29.970 
11:10	82.2	82.2	81.5	39	54.7	1	5	112	0.00	29.971 
11:15	82.4	82.4	81.4	37	53.5	2	5	112	0.00	29.970 
11:20	82.4	82.4	81.8	40	55.6	2	6	90	0.00	29.969 
11:25	81.6	81.6	80.9	38	53.5	4	7	112	0.00	29.970 
11:30	81.4	81.4	81.0	40	54.7	2	5	112	0.00	29.970 
11:35	81.8	81.8	80.9	36	52.2	2	4	112	0.00	29.969 
11:40	82.6	82.6	81.2	33	50.6	1	5	135	0.00	29.968 
11:45	83.0	83.0	82.0	37	54.0	1	5	112	0.00	29.966 
11:50	83.4	83.4	81.9	34	52.1	1	4	68	0.00	29.964 
11:55	83.6	83.6	82.2	35	53.0	2	7	112	0.00	29.961 
12:00	83.2	83.2	81.7	33	51.1	3	6	90	0.00	29.961 
12:05	82.8	82.8	81.2	32	49.9	4	9	90	0.00	29.962 
12:10	82.8	82.8	81.4	34	51.5	2	4	112	0.00	29.958 
12:15	83.2	83.2	82.1	37	54.2	1	4	90	0.00	29.957 
12:20	83.4	83.4	82.3	37	54.4	2	4	90	0.00	29.956 
12:25	83.4	83.4	82.4	38	55.1	3	6	90	0.00	29.956 
12:30	83.4	83.4	82.4	38	55.1	3	6	90	0.00	29.957 
12:35	83.8	83.8	82.1	32	50.8	3	8	90	0.00	29.957 
12:40	83.6	83.6	81.9	32	50.6	3	6	90	0.00	29.957 
12:45	83.4	83.4	81.7	32	50.4	2	6	90	0.00	29.959 
12:50	83.6	83.6	82.2	35	53.0	2	5	112	0.00	29.954 
12:55	84.1	84.1	83.4	40	57.1	2	6	112	0.00	29.954 
13:00	84.7	84.7	82.7	31	50.7	2	6	112	0.00	29.953 
13:05	84.5	84.5	82.3	29	48.7	4	7	90	0.00	29.955 
13:10	84.7	84.7	82.5	29	48.9	1	4	112	0.00	29.953 
13:15	84.7	84.7	83.0	33	52.4	2	6	112	0.00	29.951 
13:20	84.7	84.7	82.4	28	48.0	4	10	90	0.00	29.951 
13:25	84.5	84.5	82.2	28	47.8	2	5	112	0.00	29.947 
13:30	84.7	84.7	82.4	28	48.0	2	5	90	0.00	29.945 
13:35	85.1	85.1	82.8	29	49.2	1	4	90	0.00	29.941 
13:40	85.3	85.3	83.2	31	51.2	1	5	112	0.00	29.941 
13:45	84.9	84.9	82.7	29	49.1	3	5	90	0.00	29.941 
13:50	84.7	84.7	82.4	28	48.0	3	6	90	0.00	29.942 
13:55	84.5	84.5	82.2	28	47.8	3	6	90	0.00	29.942 
14:00	84.5	84.5	82.4	30	49.6	1	6	90	0.00	29.942 
14:05	84.9	84.9	82.6	28	48.1	2	5	90	0.00	29.943 
14:10	84.9	84.9	82.8	30	50.0	3	5	90	0.00	29.943 
14:15	85.1	85.1	83.1	31	51.0	1	3	180	0.00	29.943 
14:20	85.5	85.5	83.7	33	53.1	1	4	90	0.00	29.942 
14:25	85.5	85.5	83.3	30	50.5	3	7	90	0.00	29.942 
14:30	85.7	85.7	83.5	30	50.7	1	4	112	0.00	29.941 
14:35	85.9	85.9	84.2	34	54.2	2	6	112	0.00	29.939 
14:40	85.7	85.7	83.2	28	48.8	2	7	112	0.00	29.939 
14:45	85.5	85.5	83.1	28	48.6	3	8	90	0.00	29.939 
14:50	85.5	85.5	83.0	27	47.7	2	5	90	0.00	29.938 
14:55	85.5	85.5	82.8	25	45.6	3	7	112	0.00	29.939 
15:00	85.5	85.5	83.2	29	49.6	1	5	112	0.00	29.939 
15:05	85.7	85.7	83.5	30	50.7	2	5	112	0.00	29.939 
15:10	85.3	85.3	82.6	25	45.5	1	6	112	0.00	29.936 
15:15	85.3	85.3	82.9	28	48.5	1	4	90	0.00	29.931 
15:20	85.5	85.5	83.2	29	49.6	1	4	90	0.00	29.928 
15:25	85.3	85.3	83.1	30	50.3	1	5	112	0.00	29.930 
15:30	85.5	85.5	83.1	28	48.6	1	4	90	0.00	29.928 
15:35	85.7	85.7	83.4	29	49.7	3	10	90	0.00	29.927 
15:40	85.1	85.1	82.6	27	47.3	4	9	90	0.00	29.928 
15:45	84.9	84.9	82.5	27	47.2	2	5	90	0.00	29.927 
15:50	84.9	84.9	82.7	29	49.1	2	5	90	0.00	29.924 
15:55	85.1	85.1	83.1	31	51.0	1	3	112	0.00	29.924 
16:00	85.3	85.3	82.8	27	47.5	2	5	90	0.00	29.922 
16:05	85.3	85.3	83.2	31	51.2	3	5	112	0.00	29.919 
16:10	84.9	84.9	82.5	27	47.2	2	6	90	0.00	29.918 
16:15	84.9	84.9	82.6	28	48.1	2	6	90	0.00	29.918 
16:20	84.7	84.7	82.7	31	50.7	2	8	90	0.00	29.917 
16:25	84.7	84.7	82.1	25	45.0	1	6	90	0.00	29.917 
16:30	84.7	84.7	82.4	28	48.0	1	4	90	0.00	29.919 
16:35	84.5	84.5	82.3	29	48.7	0	3	112	0.00	29.918 
16:40	84.1	84.1	81.9	28	47.4	1	4	112	0.00	29.918 
16:45	84.0	84.0	81.9	29	48.3	1	4	112	0.00	29.919 
16:50	84.0	84.0	81.8	28	47.4	2	5	90	0.00	29.920 
16:55	84.0	84.0	81.7	27	46.4	1	4	90	0.00	29.919 
17:00	84.0	84.0	81.7	27	46.4	0	2	90	0.00	29.918 
17:05	84.0	84.0	81.7	27	46.4	1	3	90	0.00	29.918 
17:10	84.0	84.0	81.6	26	45.4	2	6	90	0.00	29.916 
17:15	83.8	83.8	81.7	28	47.2	2	4	112	0.00	29.915 
17:20	83.6	83.6	81.5	28	47.0	2	5	90	0.00	29.914 
17:25	83.0	83.0	81.3	31	49.2	1	7	68	0.00	29.915 
17:30	82.6	82.6	80.8	28	46.2	1	3	90	0.00	29.915 
17:35	82.4	82.4	80.8	30	47.8	0	3	90	0.00	29.915 
17:40	82.4	82.4	80.8	30	47.8	1	5	90	0.00	29.915 
17:45	82.2	82.2	80.8	32	49.4	1	3	90	0.00	29.915 
17:50	82.0	82.0	80.3	27	44.7	1	5	90	0.00	29.914 
17:55	80.7	80.7	80.0	35	50.5	1	4	45	0.00	29.914 
18:00	79.0	79.0	79.0	36	49.7	1	5	45	0.00	29.915 
18:05	78.3	78.3	78.8	38	50.6	1	2	45	0.00	29.911 
18:10	77.9	77.9	78.8	43	53.6	1	4	45	0.00	29.911 
18:15	76.8	76.8	78.3	45	53.8	0	3	22	0.00	29.911 
18:20	77.0	77.0	78.2	39	50.1	1	4	90	0.00	29.911 
18:25	77.2	77.2	78.3	40	51.0	1	3	45	0.00	29.911 
18:30	77.2	77.2	78.2	38	49.6	1	3	90	0.00	29.911 
18:35	77.4	77.4	78.4	39	50.5	1	3	112	0.00	29.912 
18:40	77.7	77.7	78.5	38	50.0	1	2	112	0.00	29.913 
18:45	77.9	77.9	78.7	41	52.3	0	3	112	0.00	29.913 
18:50	77.7	77.7	78.7	43	53.4	0	1	112	0.00	29.913 
18:55	77.6	77.6	78.5	39	50.7	0	2	112	0.00	29.913 
19:00	77.6	77.6	78.4	38	50.0	0	1	112	0.00	29.912 
19:05	77.4	77.4	78.5	41	51.8	0	1	112	0.00	29.908 
19:10	77.2	77.2	78.2	38	49.6	0	1	112	0.00	29.908 
19:15	77.2	77.2	78.3	39	50.3	0	1	112	0.00	29.909 
19:20	77.2	77.2	78.4	41	51.7	0	1	112	0.00	29.908 
19:25	76.7	76.7	78.3	44	53.1	0	0	---	0.00	29.908 
19:30	76.1	76.1	77.9	41	50.7	0	0	---	0.00	29.908 
19:35	75.6	75.6	77.8	43	51.5	0	0	---	0.00	29.908 
19:40	75.1	75.1	77.6	45	52.3	0	0	---	0.00	29.910 
19:45	74.7	74.7	74.7	44	51.3	0	0	---	0.00	29.911 
19:50	74.6	74.6	74.6	46	52.4	0	0	---	0.00	29.910 
19:55	74.2	74.2	74.2	45	51.5	0	1	112	0.00	29.911 
20:00	74.4	74.4	74.4	42	49.8	0	1	112	0.00	29.911 
20:05	75.1	75.1	77.6	42	50.4	1	3	112	0.00	29.906 
20:10	75.3	75.3	77.6	42	50.6	0	1	112	0.00	29.906 
20:15	75.1	75.1	77.6	43	51.1	0	2	112	0.00	29.906 
20:20	75.1	75.1	77.6	42	50.4	0	3	112	0.00	29.907 
20:25	74.6	74.6	74.6	41	49.3	0	0	---	0.00	29.906 
20:30	74.0	74.0	74.0	41	48.8	0	0	---	0.00	29.909 
20:35	73.3	73.3	73.3	42	48.8	0	0	---	0.00	29.909 
20:40	72.7	72.7	72.7	43	48.9	0	0	---	0.00	29.910 
20:45	72.1	72.1	72.1	45	49.6	0	0	---	0.00	29.911 
20:50	71.6	71.6	71.6	44	48.5	0	0	---	0.00	29.914 
20:55	71.1	71.1	71.1	44	48.1	0	0	---	0.00	29.914 
21:00	70.8	70.8	70.8	45	48.4	0	0	---	0.00	29.914 
21:05	70.4	70.4	70.4	44	47.4	0	0	---	0.00	29.916 
21:10	70.1	70.1	70.1	46	48.3	0	0	---	0.00	29.920 
21:15	69.8	69.8	69.8	44	46.9	0	0	---	0.00	29.922 
21:20	69.4	69.4	69.4	43	45.9	0	0	---	0.00	29.925 
21:25	69.3	69.3	69.3	44	46.4	0	0	---	0.00	29.925 
21:30	68.9	68.9	68.9	45	46.7	0	0	---	0.00	29.926 
21:35	68.8	68.8	68.8	46	47.2	0	0	---	0.00	29.927 
21:40	68.6	68.6	68.6	48	48.1	0	0	---	0.00	29.927 
21:45	68.3	68.3	68.3	48	47.8	0	0	---	0.00	29.930 
21:50	67.9	67.9	67.9	49	48.0	0	0	---	0.00	29.930 
21:55	67.4	67.4	67.4	50	48.1	0	0	---	0.00	29.934 
22:00	67.1	67.1	67.1	48	46.7	0	0	---	0.00	29.939 
22:05	66.9	66.9	66.9	49	47.1	0	0	---	0.00	29.940 
22:10	66.8	66.8	66.8	51	48.1	0	0	---	0.00	29.939 
22:15	66.6	66.6	66.6	49	46.8	0	0	---	0.00	29.938 
22:20	66.3	66.3	66.3	47	45.5	0	0	---	0.00	29.939 
22:25	66.1	66.1	66.1	50	46.9	0	0	---	0.00	29.940 
22:30	66.0	66.0	66.0	50	46.8	0	0	---	0.00	29.940 
22:35	66.1	66.1	66.1	49	46.4	0	0	---	0.00	29.940 
22:40	66.0	66.0	66.0	48	45.7	0	0	---	0.00	29.940 
22:45	66.0	66.0	66.0	48	45.7	0	0	---	0.00	29.942 
22:50	65.8	65.8	65.8	48	45.6	0	0	---	0.00	29.942 
22:55	65.8	65.8	65.8	48	45.6	0	0	---	0.00	29.942 
23:00	65.5	65.5	65.5	51	46.9	0	0	---	0.00	29.941 
23:05	65.3	65.3	65.3	50	46.2	0	0	---	0.00	29.942 
23:10	65.0	65.0	65.0	51	46.4	0	0	---	0.00	29.943 
23:15	64.7	64.7	64.7	52	46.7	0	0	---	0.00	29.942 
23:20	64.3	64.3	64.3	53	46.8	0	0	---	0.00	29.943 
23:25	64.2	64.2	64.2	55	47.7	0	0	---	0.00	29.948 
23:30	64.0	64.0	64.0	56	48.0	0	0	---	0.00	29.949 
23:35	63.9	63.9	63.9	57	48.4	0	0	---	0.00	29.947 
23:40	63.7	63.7	63.7	58	48.6	0	0	---	0.00	29.945 
23:45	63.4	63.4	63.4	58	48.4	0	0	---	0.00	29.944 
23:50	63.1	63.1	63.1	58	48.1	0	0	---	0.00	29.945 
23:55	62.7	62.7	62.7	59	48.2	0	0	---	0.00	29.945 

CoCoRaHS
IN-AL-39
A2 Web Hosting
Creative Commons License
GoDaddy
Look for:

loaded 2017-10-18 07:27:33 • last modified 2010-11-18 10:43:29
Privacy PolicyDisclaimer
• wx.awcolley.com is powered by PmWiki v.2002016 •
• all content (unless otherwise noted) © 2017 A W Colley